sensor_id;sensor_type;location;lat;lon;timestamp;P1;durP1;ratioP1;P2;durP2;ratioP2
56680;SDS011;42558;52.388;13.390;2024-03-23T00:55:16;17.86;;;4.56;;
56680;SDS011;42558;52.388;13.390;2024-03-23T00:57:45;22.42;;;4.75;;
56680;SDS011;42558;52.388;13.390;2024-03-23T01:00:15;22.04;;;4.37;;
56680;SDS011;42558;52.388;13.390;2024-03-23T01:02:44;16.15;;;3.42;;
56680;SDS011;42558;52.388;13.390;2024-03-23T01:05:13;15.96;;;3.42;;
56680;SDS011;42558;52.388;13.390;2024-03-23T01:07:42;22.23;;;4.56;;
56680;SDS011;42558;52.388;13.390;2024-03-23T01:10:11;20.33;;;4.75;;
56680;SDS011;42558;52.388;13.390;2024-03-23T01:12:40;27.93;;;4.56;;
56680;SDS011;42558;52.388;13.390;2024-03-23T01:15:09;18.24;;;4.37;;
56680;SDS011;42558;52.388;13.390;2024-03-23T01:17:38;24.70;;;4.56;;
56680;SDS011;42558;52.388;13.390;2024-03-23T01:20:08;19.19;;;4.56;;
56680;SDS011;42558;52.388;13.390;2024-03-23T01:22:36;23.37;;;4.75;;
56680;SDS011;42558;52.388;13.390;2024-03-23T01:25:06;20.71;;;3.80;;
56680;SDS011;42558;52.388;13.390;2024-03-23T01:27:35;20.52;;;3.42;;
56680;SDS011;42558;52.388;13.390;2024-03-23T01:30:04;18.62;;;3.23;;
56680;SDS011;42558;52.388;13.390;2024-03-23T01:32:31;19.00;;;4.37;;
56680;SDS011;42558;52.388;13.390;2024-03-23T01:34:59;23.18;;;5.51;;
56680;SDS011;42558;52.388;13.390;2024-03-23T01:37:28;27.36;;;6.84;;
56680;SDS011;42558;52.388;13.390;2024-03-23T01:39:57;21.66;;;5.89;;
56680;SDS011;42558;52.388;13.390;2024-03-23T01:42:26;19.76;;;5.13;;
56680;SDS011;42558;52.388;13.390;2024-03-23T01:44:54;21.47;;;4.94;;
56680;SDS011;42558;52.388;13.390;2024-03-23T01:47:21;20.14;;;5.13;;
56680;SDS011;42558;52.388;13.390;2024-03-23T01:49:49;26.60;;;5.13;;
56680;SDS011;42558;52.388;13.390;2024-03-23T01:52:19;25.08;;;3.99;;
56680;SDS011;42558;52.388;13.390;2024-03-23T01:54:48;18.81;;;5.13;;
56680;SDS011;42558;52.388;13.390;2024-03-23T01:57:15;20.14;;;4.56;;
56680;SDS011;42558;52.388;13.390;2024-03-23T01:59:44;21.28;;;5.13;;
56680;SDS011;42558;52.388;13.390;2024-03-23T02:02:11;14.25;;;3.99;;
56680;SDS011;42558;52.388;13.390;2024-03-23T02:04:37;22.04;;;4.75;;
56680;SDS011;42558;52.388;13.390;2024-03-23T02:07:08;23.18;;;4.94;;
56680;SDS011;42558;52.388;13.390;2024-03-23T02:09:37;17.48;;;4.18;;
56680;SDS011;42558;52.388;13.390;2024-03-23T02:12:07;33.06;;;6.27;;
56680;SDS011;42558;52.388;13.390;2024-03-23T02:14:36;19.76;;;4.75;;
56680;SDS011;42558;52.388;13.390;2024-03-23T02:17:05;16.15;;;3.61;;
56680;SDS011;42558;52.388;13.390;2024-03-23T02:19:33;23.94;;;3.99;;
56680;SDS011;42558;52.388;13.390;2024-03-23T02:22:02;21.09;;;4.75;;
56680;SDS011;42558;52.388;13.390;2024-03-23T02:24:31;15.39;;;3.80;;
56680;SDS011;42558;52.388;13.390;2024-03-23T02:27:02;20.90;;;4.37;;
56680;SDS011;42558;52.388;13.390;2024-03-23T02:29:31;16.53;;;3.99;;
56680;SDS011;42558;52.388;13.390;2024-03-23T02:32:00;16.53;;;5.89;;
56680;SDS011;42558;52.388;13.390;2024-03-23T02:34:30;23.18;;;5.13;;
56680;SDS011;42558;52.388;13.390;2024-03-23T02:36:59;24.32;;;5.70;;
56680;SDS011;42558;52.388;13.390;2024-03-23T02:39:27;20.71;;;4.94;;
56680;SDS011;42558;52.388;13.390;2024-03-23T02:41:57;21.85;;;4.56;;
56680;SDS011;42558;52.388;13.390;2024-03-23T02:44:25;20.71;;;4.56;;
56680;SDS011;42558;52.388;13.390;2024-03-23T02:46:54;22.42;;;4.18;;
56680;SDS011;42558;52.388;13.390;2024-03-23T02:49:23;25.84;;;4.75;;
56680;SDS011;42558;52.388;13.390;2024-03-23T02:51:52;19.57;;;4.56;;
56680;SDS011;42558;52.388;13.390;2024-03-23T02:54:21;20.14;;;4.56;;
56680;SDS011;42558;52.388;13.390;2024-03-23T02:56:50;20.52;;;4.18;;
56680;SDS011;42558;52.388;13.390;2024-03-23T02:59:19;22.99;;;4.75;;
56680;SDS011;42558;52.388;13.390;2024-03-23T03:01:48;13.11;;;3.99;;
56680;SDS011;42558;52.388;13.390;2024-03-23T03:04:17;23.18;;;4.37;;
56680;SDS011;42558;52.388;13.390;2024-03-23T03:06:47;21.47;;;5.13;;
56680;SDS011;42558;52.388;13.390;2024-03-23T03:09:17;17.86;;;4.18;;
56680;SDS011;42558;52.388;13.390;2024-03-23T03:11:46;22.99;;;4.75;;
56680;SDS011;42558;52.388;13.390;2024-03-23T03:14:15;20.33;;;4.56;;
56680;SDS011;42558;52.388;13.390;2024-03-23T03:16:44;15.39;;;3.80;;
56680;SDS011;42558;52.388;13.390;2024-03-23T03:19:13;17.67;;;4.37;;
56680;SDS011;42558;52.388;13.390;2024-03-23T03:21:42;18.62;;;4.75;;
56680;SDS011;42558;52.388;13.390;2024-03-23T03:24:11;25.46;;;4.94;;
56680;SDS011;42558;52.388;13.390;2024-03-23T03:26:40;19.95;;;4.37;;
56680;SDS011;42558;52.388;13.390;2024-03-23T03:29:09;15.77;;;4.37;;
56680;SDS011;42558;52.388;13.390;2024-03-23T03:31:39;25.46;;;5.32;;
56680;SDS011;42558;52.388;13.390;2024-03-23T03:34:08;20.52;;;4.18;;
56680;SDS011;42558;52.388;13.390;2024-03-23T03:36:37;18.62;;;4.75;;
56680;SDS011;42558;52.388;13.390;2024-03-23T03:39:06;25.84;;;5.32;;
56680;SDS011;42558;52.388;13.390;2024-03-23T03:41:35;24.13;;;6.08;;
56680;SDS011;42558;52.388;13.390;2024-03-23T03:44:04;20.90;;;4.56;;
56680;SDS011;42558;52.388;13.390;2024-03-23T03:46:31;18.05;;;4.75;;
56680;SDS011;42558;52.388;13.390;2024-03-23T03:49:00;14.82;;;3.80;;
56680;SDS011;42558;52.388;13.390;2024-03-23T03:51:28;19.76;;;4.37;;
56680;SDS011;42558;52.388;13.390;2024-03-23T03:53:57;22.80;;;4.56;;
56680;SDS011;42558;52.388;13.390;2024-03-23T03:56:26;22.42;;;4.94;;
56680;SDS011;42558;52.388;13.390;2024-03-23T03:58:56;22.99;;;5.70;;
56680;SDS011;42558;52.388;13.390;2024-03-23T04:01:25;21.85;;;5.51;;
56680;SDS011;42558;52.388;13.390;2024-03-23T04:03:54;17.67;;;5.51;;
56680;SDS011;42558;52.388;13.390;2024-03-23T04:06:23;23.37;;;6.08;;
56680;SDS011;42558;52.388;13.390;2024-03-23T04:08:52;20.90;;;5.13;;
56680;SDS011;42558;52.388;13.390;2024-03-23T04:11:21;19.57;;;4.37;;
56680;SDS011;42558;52.388;13.390;2024-03-23T04:13:50;19.57;;;5.51;;
56680;SDS011;42558;52.388;13.390;2024-03-23T04:16:29;22.23;;;5.89;;
56680;SDS011;42558;52.388;13.390;2024-03-23T04:18:58;22.80;;;5.70;;
56680;SDS011;42558;52.388;13.390;2024-03-23T04:21:27;21.28;;;4.37;;
56680;SDS011;42558;52.388;13.390;2024-03-23T04:23:56;13.11;;;5.32;;
56680;SDS011;42558;52.388;13.390;2024-03-23T04:26:25;21.28;;;4.94;;
56680;SDS011;42558;52.388;13.390;2024-03-23T04:28:54;15.20;;;4.37;;
56680;SDS011;42558;52.388;13.390;2024-03-23T04:31:23;16.15;;;3.61;;
56680;SDS011;42558;52.388;13.390;2024-03-23T04:33:52;18.62;;;4.75;;
56680;SDS011;42558;52.388;13.390;2024-03-23T04:36:21;28.31;;;5.32;;
56680;SDS011;42558;52.388;13.390;2024-03-23T04:38:50;18.43;;;3.99;;
56680;SDS011;42558;52.388;13.390;2024-03-23T04:41:21;13.87;;;5.32;;
56680;SDS011;42558;52.388;13.390;2024-03-23T04:43:50;18.62;;;3.61;;
56680;SDS011;42558;52.388;13.390;2024-03-23T04:46:19;11.40;;;3.80;;
56680;SDS011;42558;52.388;13.390;2024-03-23T04:48:49;18.24;;;3.80;;
56680;SDS011;42558;52.388;13.390;2024-03-23T04:51:23;12.73;;;3.23;;
56680;SDS011;42558;52.388;13.390;2024-03-23T04:53:52;17.48;;;4.37;;
56680;SDS011;42558;52.388;13.390;2024-03-23T04:56:21;21.09;;;4.37;;
56680;SDS011;42558;52.388;13.390;2024-03-23T04:58:50;16.15;;;4.37;;
56680;SDS011;42558;52.388;13.390;2024-03-23T05:01:19;20.52;;;4.37;;
56680;SDS011;42558;52.388;13.390;2024-03-23T05:03:48;18.62;;;3.99;;
56680;SDS011;42558;52.388;13.390;2024-03-23T05:06:18;18.24;;;4.18;;
56680;SDS011;42558;52.388;13.390;2024-03-23T05:08:47;14.44;;;3.42;;
56680;SDS011;42558;52.388;13.390;2024-03-23T05:11:16;15.39;;;4.37;;
56680;SDS011;42558;52.388;13.390;2024-03-23T05:13:46;15.39;;;3.42;;
56680;SDS011;42558;52.388;13.390;2024-03-23T05:16:15;19.95;;;3.80;;
56680;SDS011;42558;52.388;13.390;2024-03-23T05:18:44;18.43;;;5.13;;
56680;SDS011;42558;52.388;13.390;2024-03-23T05:21:13;16.72;;;4.18;;
56680;SDS011;42558;52.388;13.390;2024-03-23T05:23:42;14.25;;;3.61;;
56680;SDS011;42558;52.388;13.390;2024-03-23T05:26:11;17.29;;;4.18;;
56680;SDS011;42558;52.388;13.390;2024-03-23T05:28:40;17.10;;;3.99;;
56680;SDS011;42558;52.388;13.390;2024-03-23T05:31:09;15.96;;;3.61;;
56680;SDS011;42558;52.388;13.390;2024-03-23T05:33:38;14.63;;;4.18;;
56680;SDS011;42558;52.388;13.390;2024-03-23T05:36:07;16.91;;;3.42;;
56680;SDS011;42558;52.388;13.390;2024-03-23T05:38:40;14.06;;;4.18;;
56680;SDS011;42558;52.388;13.390;2024-03-23T05:41:09;14.63;;;3.99;;
56680;SDS011;42558;52.388;13.390;2024-03-23T05:43:38;14.82;;;4.94;;
56680;SDS011;42558;52.388;13.390;2024-03-23T05:46:07;16.72;;;4.18;;
56680;SDS011;42558;52.388;13.390;2024-03-23T05:48:37;15.01;;;6.27;;
56680;SDS011;42558;52.388;13.390;2024-03-23T05:51:06;14.44;;;3.99;;
56680;SDS011;42558;52.388;13.390;2024-03-23T05:53:36;12.16;;;3.80;;
56680;SDS011;42558;52.388;13.390;2024-03-23T05:56:05;20.14;;;4.18;;
56680;SDS011;42558;52.388;13.390;2024-03-23T05:58:34;20.33;;;5.51;;
56680;SDS011;42558;52.388;13.390;2024-03-23T06:01:03;16.34;;;4.94;;
56680;SDS011;42558;52.388;13.390;2024-03-23T06:03:33;17.86;;;3.80;;
56680;SDS011;42558;52.388;13.390;2024-03-23T06:06:04;18.43;;;4.94;;
56680;SDS011;42558;52.388;13.390;2024-03-23T06:08:31;13.49;;;4.75;;
56680;SDS011;42558;52.388;13.390;2024-03-23T06:11:00;14.25;;;6.27;;
56680;SDS011;42558;52.388;13.390;2024-03-23T06:13:29;14.25;;;4.75;;
56680;SDS011;42558;52.388;13.390;2024-03-23T06:15:58;15.96;;;4.18;;
56680;SDS011;42558;52.388;13.390;2024-03-23T06:18:27;11.40;;;4.18;;
56680;SDS011;42558;52.388;13.390;2024-03-23T06:20:56;16.53;;;5.32;;
56680;SDS011;42558;52.388;13.390;2024-03-23T06:23:26;16.15;;;4.75;;
56680;SDS011;42558;52.388;13.390;2024-03-23T06:25:55;13.49;;;3.80;;
56680;SDS011;42558;52.388;13.390;2024-03-23T06:28:24;14.06;;;4.56;;
56680;SDS011;42558;52.388;13.390;2024-03-23T06:30:53;17.29;;;4.37;;
56680;SDS011;42558;52.388;13.390;2024-03-23T06:33:22;16.34;;;4.75;;
56680;SDS011;42558;52.388;13.390;2024-03-23T06:35:52;11.97;;;4.18;;
56680;SDS011;42558;52.388;13.390;2024-03-23T06:38:21;11.97;;;3.99;;
56680;SDS011;42558;52.388;13.390;2024-03-23T06:40:50;19.76;;;4.37;;
56680;SDS011;42558;52.388;13.390;2024-03-23T06:43:21;13.49;;;4.37;;
56680;SDS011;42558;52.388;13.390;2024-03-23T06:45:53;15.77;;;4.37;;
56680;SDS011;42558;52.388;13.390;2024-03-23T06:48:23;19.00;;;4.56;;
56680;SDS011;42558;52.388;13.390;2024-03-23T06:50:56;13.87;;;4.37;;
56680;SDS011;42558;52.388;13.390;2024-03-23T06:53:23;17.86;;;5.51;;
56680;SDS011;42558;52.388;13.390;2024-03-23T06:55:53;18.43;;;5.51;;
56680;SDS011;42558;52.388;13.390;2024-03-23T06:58:21;10.83;;;4.37;;
56680;SDS011;42558;52.388;13.390;2024-03-23T07:00:48;17.10;;;5.32;;
56680;SDS011;42558;52.388;13.390;2024-03-23T07:03:17;18.43;;;4.94;;
56680;SDS011;42558;52.388;13.390;2024-03-23T07:05:45;14.44;;;4.37;;
56680;SDS011;42558;52.388;13.390;2024-03-23T07:08:13;14.63;;;3.42;;
56680;SDS011;42558;52.388;13.390;2024-03-23T07:10:45;14.63;;;4.18;;
56680;SDS011;42558;52.388;13.390;2024-03-23T07:13:13;15.20;;;4.37;;
56680;SDS011;42558;52.388;13.390;2024-03-23T07:15:41;11.97;;;3.61;;
56680;SDS011;42558;52.388;13.390;2024-03-23T07:18:10;15.20;;;4.75;;
56680;SDS011;42558;52.388;13.390;2024-03-23T07:20:37;16.15;;;3.61;;
56680;SDS011;42558;52.388;13.390;2024-03-23T07:23:06;13.30;;;3.99;;
56680;SDS011;42558;52.388;13.390;2024-03-23T07:25:34;13.11;;;3.99;;
56680;SDS011;42558;52.388;13.390;2024-03-23T07:28:02;14.63;;;3.61;;
56680;SDS011;42558;52.388;13.390;2024-03-23T07:30:31;16.72;;;4.56;;
56680;SDS011;42558;52.388;13.390;2024-03-23T07:32:59;15.77;;;4.56;;
56680;SDS011;42558;52.388;13.390;2024-03-23T07:35:28;14.63;;;3.99;;
56680;SDS011;42558;52.388;13.390;2024-03-23T07:37:56;14.63;;;3.80;;
56680;SDS011;42558;52.388;13.390;2024-03-23T07:40:24;14.06;;;4.37;;
56680;SDS011;42558;52.388;13.390;2024-03-23T07:42:53;11.78;;;4.18;;
56680;SDS011;42558;52.388;13.390;2024-03-23T07:45:21;14.25;;;4.37;;
56680;SDS011;42558;52.388;13.390;2024-03-23T07:47:50;13.87;;;3.99;;
56680;SDS011;42558;52.388;13.390;2024-03-23T07:50:18;14.63;;;4.18;;
56680;SDS011;42558;52.388;13.390;2024-03-23T07:52:47;15.77;;;4.18;;
56680;SDS011;42558;52.388;13.390;2024-03-23T07:55:15;12.35;;;4.18;;
56680;SDS011;42558;52.388;13.390;2024-03-23T07:57:43;10.83;;;3.42;;
56680;SDS011;42558;52.388;13.390;2024-03-23T08:00:13;17.86;;;4.37;;
56680;SDS011;42558;52.388;13.390;2024-03-23T08:02:45;13.49;;;4.18;;
56680;SDS011;42558;52.388;13.390;2024-03-23T08:05:14;14.25;;;4.18;;
56680;SDS011;42558;52.388;13.390;2024-03-23T08:07:43;16.72;;;4.37;;
56680;SDS011;42558;52.388;13.390;2024-03-23T08:10:12;11.97;;;5.13;;
56680;SDS011;42558;52.388;13.390;2024-03-23T08:12:41;13.30;;;3.99;;
56680;SDS011;42558;52.388;13.390;2024-03-23T08:15:10;12.92;;;4.18;;
56680;SDS011;42558;52.388;13.390;2024-03-23T08:17:39;11.40;;;4.18;;
56680;SDS011;42558;52.388;13.390;2024-03-23T08:20:18;12.35;;;3.61;;
56680;SDS011;42558;52.388;13.390;2024-03-23T08:22:47;15.96;;;4.56;;
56680;SDS011;42558;52.388;13.390;2024-03-23T08:25:16;11.97;;;4.37;;
56680;SDS011;42558;52.388;13.390;2024-03-23T08:27:45;13.30;;;3.80;;
56680;SDS011;42558;52.388;13.390;2024-03-23T08:30:14;18.43;;;3.99;;
56680;SDS011;42558;52.388;13.390;2024-03-23T08:32:43;16.91;;;4.37;;
56680;SDS011;42558;52.388;13.390;2024-03-23T08:35:12;8.36;;;3.61;;
56680;SDS011;42558;52.388;13.390;2024-03-23T08:37:41;12.73;;;3.80;;
56680;SDS011;42558;52.388;13.390;2024-03-23T08:40:11;13.30;;;3.42;;
56680;SDS011;42558;52.388;13.390;2024-03-23T08:42:40;11.97;;;3.42;;
56680;SDS011;42558;52.388;13.390;2024-03-23T08:45:09;17.86;;;4.94;;
56680;SDS011;42558;52.388;13.390;2024-03-23T08:47:38;9.88;;;3.61;;
56680;SDS011;42558;52.388;13.390;2024-03-23T08:50:07;13.49;;;3.04;;
56680;SDS011;42558;52.388;13.390;2024-03-23T08:52:34;13.30;;;3.80;;
56680;SDS011;42558;52.388;13.390;2024-03-23T08:55:03;17.67;;;3.61;;
56680;SDS011;42558;52.388;13.390;2024-03-23T08:57:33;9.69;;;3.23;;
56680;SDS011;42558;52.388;13.390;2024-03-23T09:00:02;11.97;;;3.42;;
56680;SDS011;42558;52.388;13.390;2024-03-23T09:02:32;9.31;;;3.04;;
56680;SDS011;42558;52.388;13.390;2024-03-23T09:05:01;12.35;;;3.42;;
56680;SDS011;42558;52.388;13.390;2024-03-23T09:07:32;10.45;;;3.04;;
56680;SDS011;42558;52.388;13.390;2024-03-23T09:10:02;13.49;;;3.04;;
56680;SDS011;42558;52.388;13.390;2024-03-23T09:12:31;10.26;;;2.85;;
56680;SDS011;42558;52.388;13.390;2024-03-23T09:15:00;13.49;;;4.37;;
56680;SDS011;42558;52.388;13.390;2024-03-23T09:17:28;9.69;;;2.85;;
56680;SDS011;42558;52.388;13.390;2024-03-23T09:19:57;13.49;;;3.42;;
56680;SDS011;42558;52.388;13.390;2024-03-23T09:22:26;15.01;;;3.23;;
56680;SDS011;42558;52.388;13.390;2024-03-23T09:24:55;9.69;;;3.61;;
56680;SDS011;42558;52.388;13.390;2024-03-23T09:27:24;14.44;;;2.85;;
56680;SDS011;42558;52.388;13.390;2024-03-23T09:29:53;11.02;;;3.61;;
56680;SDS011;42558;52.388;13.390;2024-03-23T09:32:22;7.79;;;2.28;;
56680;SDS011;42558;52.388;13.390;2024-03-23T09:34:51;11.59;;;2.66;;
56680;SDS011;42558;52.388;13.390;2024-03-23T09:37:20;10.45;;;2.28;;
56680;SDS011;42558;52.388;13.390;2024-03-23T09:39:49;11.21;;;2.66;;
56680;SDS011;42558;52.388;13.390;2024-03-23T09:42:17;8.93;;;2.28;;
56680;SDS011;42558;52.388;13.390;2024-03-23T09:44:48;7.60;;;2.28;;
56680;SDS011;42558;52.388;13.390;2024-03-23T09:47:19;9.69;;;2.66;;
56680;SDS011;42558;52.388;13.390;2024-03-23T09:49:49;10.83;;;2.66;;
56680;SDS011;42558;52.388;13.390;2024-03-23T09:52:18;7.22;;;2.09;;
56680;SDS011;42558;52.388;13.390;2024-03-23T09:54:47;11.78;;;2.85;;
56680;SDS011;42558;52.388;13.390;2024-03-23T09:57:17;7.79;;;2.28;;
56680;SDS011;42558;52.388;13.390;2024-03-23T09:59:45;10.83;;;2.66;;
56680;SDS011;42558;52.388;13.390;2024-03-23T10:02:16;11.97;;;2.66;;
56680;SDS011;42558;52.388;13.390;2024-03-23T10:04:46;14.82;;;3.04;;
56680;SDS011;42558;52.388;13.390;2024-03-23T10:07:18;15.01;;;2.66;;
56680;SDS011;42558;52.388;13.390;2024-03-23T10:09:48;14.63;;;3.99;;
56680;SDS011;42558;52.388;13.390;2024-03-23T10:12:20;11.21;;;3.23;;
56680;SDS011;42558;52.388;13.390;2024-03-23T10:14:50;13.68;;;3.23;;
56680;SDS011;42558;52.388;13.390;2024-03-23T10:17:21;16.53;;;2.85;;
56680;SDS011;42558;52.388;13.390;2024-03-23T10:19:56;13.11;;;2.85;;
56680;SDS011;42558;52.388;13.390;2024-03-23T10:22:25;11.78;;;3.04;;
56680;SDS011;42558;52.388;13.390;2024-03-23T10:25:07;13.11;;;3.23;;
56680;SDS011;42558;52.388;13.390;2024-03-23T10:27:37;10.26;;;3.04;;
56680;SDS011;42558;52.388;13.390;2024-03-23T10:30:12;9.69;;;2.09;;
56680;SDS011;42558;52.388;13.390;2024-03-23T10:32:43;9.12;;;2.66;;
56680;SDS011;42558;52.388;13.390;2024-03-23T10:35:20;8.74;;;2.66;;
56680;SDS011;42558;52.388;13.390;2024-03-23T10:37:52;12.16;;;2.66;;
56680;SDS011;42558;52.388;13.390;2024-03-23T10:40:24;12.16;;;2.66;;
56680;SDS011;42558;52.388;13.390;2024-03-23T10:42:57;12.16;;;2.66;;
56680;SDS011;42558;52.388;13.390;2024-03-23T10:45:28;10.64;;;3.23;;
56680;SDS011;42558;52.388;13.390;2024-03-23T10:47:57;12.92;;;2.28;;
56680;SDS011;42558;52.388;13.390;2024-03-23T10:50:26;12.16;;;3.23;;
56680;SDS011;42558;52.388;13.390;2024-03-23T10:52:56;11.59;;;3.04;;
56680;SDS011;42558;52.388;13.390;2024-03-23T10:55:28;12.73;;;3.23;;
56680;SDS011;42558;52.388;13.390;2024-03-23T10:57:56;12.35;;;2.85;;
56680;SDS011;42558;52.388;13.390;2024-03-23T11:00:27;12.92;;;3.04;;
56680;SDS011;42558;52.388;13.390;2024-03-23T11:02:55;12.54;;;2.28;;
56680;SDS011;42558;52.388;13.390;2024-03-23T11:07:55;11.78;;;2.66;;
56680;SDS011;42558;52.388;13.390;2024-03-23T11:10:28;10.83;;;2.66;;
56680;SDS011;42558;52.388;13.390;2024-03-23T11:13:23;12.73;;;2.85;;
56680;SDS011;42558;52.388;13.390;2024-03-23T11:15:53;11.21;;;2.85;;
56680;SDS011;42558;52.388;13.390;2024-03-23T11:18:21;11.78;;;3.04;;
56680;SDS011;42558;52.388;13.390;2024-03-23T11:20:49;8.55;;;2.47;;
56680;SDS011;42558;52.388;13.390;2024-03-23T11:23:28;7.41;;;3.23;;
56680;SDS011;42558;52.388;13.390;2024-03-23T11:25:57;13.30;;;3.04;;
56680;SDS011;42558;52.388;13.390;2024-03-23T11:28:26;10.83;;;2.85;;
56680;SDS011;42558;52.388;13.390;2024-03-23T11:30:55;12.92;;;2.85;;
56680;SDS011;42558;52.388;13.390;2024-03-23T11:33:24;11.78;;;3.04;;
56680;SDS011;42558;52.388;13.390;2024-03-23T11:35:53;9.50;;;2.66;;
56680;SDS011;42558;52.388;13.390;2024-03-23T11:38:22;10.83;;;3.04;;
56680;SDS011;42558;52.388;13.390;2024-03-23T11:40:49;9.31;;;2.47;;
56680;SDS011;42558;52.388;13.390;2024-03-23T11:43:19;9.69;;;3.23;;
56680;SDS011;42558;52.388;13.390;2024-03-23T11:45:51;12.16;;;3.80;;
56680;SDS011;42558;52.388;13.390;2024-03-23T11:48:23;12.35;;;3.42;;
56680;SDS011;42558;52.388;13.390;2024-03-23T11:50:57;10.64;;;2.66;;
56680;SDS011;42558;52.388;13.390;2024-03-23T11:53:26;11.78;;;3.23;;
56680;SDS011;42558;52.388;13.390;2024-03-23T11:55:57;12.92;;;2.85;;
56680;SDS011;42558;52.388;13.390;2024-03-23T11:58:26;7.79;;;2.66;;
56680;SDS011;42558;52.388;13.390;2024-03-23T12:01:00;10.64;;;2.85;;
56680;SDS011;42558;52.388;13.390;2024-03-23T12:03:31;12.16;;;3.80;;
56680;SDS011;42558;52.388;13.390;2024-03-23T12:06:01;13.68;;;3.61;;
56680;SDS011;42558;52.388;13.390;2024-03-23T12:08:34;11.59;;;2.66;;
56680;SDS011;42558;52.388;13.390;2024-03-23T12:11:08;15.01;;;3.04;;
56680;SDS011;42558;52.388;13.390;2024-03-23T12:13:41;11.21;;;2.85;;
56680;SDS011;42558;52.388;13.390;2024-03-23T12:16:18;9.88;;;2.85;;
56680;SDS011;42558;52.388;13.390;2024-03-23T12:18:49;13.68;;;3.04;;
56680;SDS011;42558;52.388;13.390;2024-03-23T12:21:22;9.50;;;3.23;;
56680;SDS011;42558;52.388;13.390;2024-03-23T12:23:50;10.45;;;3.23;;
56680;SDS011;42558;52.388;13.390;2024-03-23T12:26:20;10.26;;;3.61;;
56680;SDS011;42558;52.388;13.390;2024-03-23T12:28:51;13.68;;;2.85;;
56680;SDS011;42558;52.388;13.390;2024-03-23T12:31:20;8.55;;;2.66;;
56680;SDS011;42558;52.388;13.390;2024-03-23T12:33:49;15.39;;;3.42;;
56680;SDS011;42558;52.388;13.390;2024-03-23T12:36:18;13.87;;;3.04;;
56680;SDS011;42558;52.388;13.390;2024-03-23T12:38:47;8.74;;;2.85;;
56680;SDS011;42558;52.388;13.390;2024-03-23T12:41:16;11.97;;;3.42;;
56680;SDS011;42558;52.388;13.390;2024-03-23T12:43:45;15.58;;;3.23;;
56680;SDS011;42558;52.388;13.390;2024-03-23T12:46:14;13.11;;;3.42;;
56680;SDS011;42558;52.388;13.390;2024-03-23T12:48:45;9.12;;;3.04;;
56680;SDS011;42558;52.388;13.390;2024-03-23T12:51:14;14.06;;;3.61;;
56680;SDS011;42558;52.388;13.390;2024-03-23T12:53:42;16.34;;;3.99;;
56680;SDS011;42558;52.388;13.390;2024-03-23T12:56:12;11.21;;;2.85;;
56680;SDS011;42558;52.388;13.390;2024-03-23T12:58:41;14.44;;;4.18;;
56680;SDS011;42558;52.388;13.390;2024-03-23T13:01:10;11.78;;;3.42;;
56680;SDS011;42558;52.388;13.390;2024-03-23T13:03:39;10.83;;;3.61;;
56680;SDS011;42558;52.388;13.390;2024-03-23T13:06:09;10.45;;;3.23;;
56680;SDS011;42558;52.388;13.390;2024-03-23T13:08:38;11.97;;;3.80;;
56680;SDS011;42558;52.388;13.390;2024-03-23T13:11:09;9.31;;;3.04;;
56680;SDS011;42558;52.388;13.390;2024-03-23T13:13:39;11.78;;;2.66;;
56680;SDS011;42558;52.388;13.390;2024-03-23T13:16:08;9.88;;;2.85;;
56680;SDS011;42558;52.388;13.390;2024-03-23T13:18:37;9.12;;;2.85;;
56680;SDS011;42558;52.388;13.390;2024-03-23T13:21:06;10.64;;;2.66;;
56680;SDS011;42558;52.388;13.390;2024-03-23T13:23:35;10.07;;;3.04;;
56680;SDS011;42558;52.388;13.390;2024-03-23T13:26:06;11.21;;;2.66;;
56680;SDS011;42558;52.388;13.390;2024-03-23T13:28:33;11.21;;;3.23;;
56680;SDS011;42558;52.388;13.390;2024-03-23T13:31:04;11.78;;;3.61;;
56680;SDS011;42558;52.388;13.390;2024-03-23T13:33:33;14.25;;;3.42;;
56680;SDS011;42558;52.388;13.390;2024-03-23T13:36:02;11.59;;;4.37;;
56680;SDS011;42558;52.388;13.390;2024-03-23T13:38:31;11.40;;;3.61;;
56680;SDS011;42558;52.388;13.390;2024-03-23T13:41:00;12.54;;;3.80;;
56680;SDS011;42558;52.388;13.390;2024-03-23T13:43:30;15.58;;;3.80;;
56680;SDS011;42558;52.388;13.390;2024-03-23T13:45:59;15.58;;;3.42;;
56680;SDS011;42558;52.388;13.390;2024-03-23T13:48:27;13.87;;;3.99;;
56680;SDS011;42558;52.388;13.390;2024-03-23T13:51:05;13.11;;;3.99;;
56680;SDS011;42558;52.388;13.390;2024-03-23T13:53:33;17.10;;;4.75;;
56680;SDS011;42558;52.388;13.390;2024-03-23T13:56:01;11.02;;;3.42;;
56680;SDS011;42558;52.388;13.390;2024-03-23T13:58:29;12.35;;;3.80;;
56680;SDS011;42558;52.388;13.390;2024-03-23T14:00:58;14.25;;;3.42;;
56680;SDS011;42558;52.388;13.390;2024-03-23T14:03:26;15.01;;;4.75;;
56680;SDS011;42558;52.388;13.390;2024-03-23T14:05:58;16.15;;;4.56;;
56680;SDS011;42558;52.388;13.390;2024-03-23T14:08:27;17.48;;;4.94;;
56680;SDS011;42558;52.388;13.390;2024-03-23T14:10:56;11.59;;;3.99;;
56680;SDS011;42558;52.388;13.390;2024-03-23T14:13:25;15.77;;;6.46;;
56680;SDS011;42558;52.388;13.390;2024-03-23T14:15:56;17.10;;;4.56;;
56680;SDS011;42558;52.388;13.390;2024-03-23T14:18:27;14.82;;;4.37;;
56680;SDS011;42558;52.388;13.390;2024-03-23T14:20:58;18.24;;;5.13;;
56680;SDS011;42558;52.388;13.390;2024-03-23T14:23:30;13.49;;;4.56;;
56680;SDS011;42558;52.388;13.390;2024-03-23T14:26:02;17.86;;;5.32;;
56680;SDS011;42558;52.388;13.390;2024-03-23T14:28:31;16.15;;;5.13;;
56680;SDS011;42558;52.388;13.390;2024-03-23T14:31:01;14.06;;;6.27;;
56680;SDS011;42558;52.388;13.390;2024-03-23T14:33:31;11.21;;;4.37;;
56680;SDS011;42558;52.388;13.390;2024-03-23T14:36:03;19.19;;;6.08;;
56680;SDS011;42558;52.388;13.390;2024-03-23T14:38:31;12.16;;;5.51;;
56680;SDS011;42558;52.388;13.390;2024-03-23T14:41:00;16.15;;;6.65;;
56680;SDS011;42558;52.388;13.390;2024-03-23T14:43:29;13.49;;;5.51;;
56680;SDS011;42558;52.388;13.390;2024-03-23T14:46:10;13.49;;;5.89;;
56680;SDS011;42558;52.388;13.390;2024-03-23T14:48:44;14.06;;;6.84;;
56680;SDS011;42558;52.388;13.390;2024-03-23T14:51:13;16.15;;;5.89;;
56680;SDS011;42558;52.388;13.390;2024-03-23T14:53:45;15.96;;;5.32;;
56680;SDS011;42558;52.388;13.390;2024-03-23T14:56:12;20.90;;;6.08;;
56680;SDS011;42558;52.388;13.390;2024-03-23T14:58:43;11.97;;;5.13;;
56680;SDS011;42558;52.388;13.390;2024-03-23T15:01:14;11.02;;;3.80;;
56680;SDS011;42558;52.388;13.390;2024-03-23T15:03:43;9.12;;;3.80;;
56680;SDS011;42558;52.388;13.390;2024-03-23T15:06:13;9.12;;;3.42;;
56680;SDS011;42558;52.388;13.390;2024-03-23T15:08:42;9.31;;;3.23;;
56680;SDS011;42558;52.388;13.390;2024-03-23T15:11:11;8.36;;;3.04;;
56680;SDS011;42558;52.388;13.390;2024-03-23T15:13:40;10.83;;;3.42;;
56680;SDS011;42558;52.388;13.390;2024-03-23T15:16:09;7.41;;;3.23;;
56680;SDS011;42558;52.388;13.390;2024-03-23T15:18:38;11.21;;;3.23;;
56680;SDS011;42558;52.388;13.390;2024-03-23T15:21:07;12.16;;;3.23;;
56680;SDS011;42558;52.388;13.390;2024-03-23T15:23:39;8.55;;;2.66;;
56680;SDS011;42558;52.388;13.390;2024-03-23T15:26:08;9.12;;;2.66;;
56680;SDS011;42558;52.388;13.390;2024-03-23T15:28:34;10.07;;;3.42;;
56680;SDS011;42558;52.388;13.390;2024-03-23T15:31:30;7.98;;;3.23;;
56680;SDS011;42558;52.388;13.390;2024-03-23T15:34:00;6.46;;;2.85;;